createdAt,value
2018-10-19T00:01:41.771Z,9.80
2018-10-19T00:04:09.919Z,9.70
2018-10-19T00:06:38.423Z,9.70
2018-10-19T00:09:07.472Z,9.60
2018-10-19T00:11:35.638Z,9.50
2018-10-19T00:14:03.858Z,9.50
2018-10-19T00:16:32.023Z,9.50
2018-10-19T00:19:00.190Z,9.40
2018-10-19T00:21:28.391Z,9.50
2018-10-19T00:23:56.578Z,9.50
2018-10-19T00:26:24.739Z,9.40
2018-10-19T00:28:52.975Z,9.30
2018-10-19T00:31:21.104Z,9.30
2018-10-19T00:33:49.267Z,9.30
2018-10-19T00:36:17.430Z,9.20
2018-10-19T00:38:45.599Z,9.00
2018-10-19T00:41:13.836Z,9.00
2018-10-19T00:43:41.929Z,9.00
2018-10-19T00:46:10.119Z,9.00
2018-10-19T00:48:38.327Z,9.10
2018-10-19T00:51:06.580Z,9.00
2018-10-19T00:53:34.710Z,8.90
2018-10-19T00:56:02.894Z,8.90
2018-10-19T00:58:31.082Z,8.70
2018-10-19T01:00:59.288Z,8.70
2018-10-19T01:03:27.495Z,8.80
2018-10-19T01:05:55.685Z,8.90
2018-10-19T01:08:23.900Z,8.80
2018-10-19T01:10:52.081Z,8.80
2018-10-19T01:13:20.270Z,8.80
2018-10-19T01:15:48.460Z,8.70
2018-10-19T01:18:16.653Z,8.80
2018-10-19T01:20:44.868Z,8.80
2018-10-19T01:23:13.092Z,8.80
2018-10-19T01:25:42.271Z,8.90
2018-10-19T01:28:10.954Z,8.80
2018-10-19T01:30:39.162Z,8.80
2018-10-19T01:33:07.396Z,8.70
2018-10-19T01:35:35.543Z,8.60
2018-10-19T01:38:03.726Z,8.50
2018-10-19T01:40:31.921Z,8.50
2018-10-19T01:43:00.120Z,8.50
2018-10-19T01:45:29.363Z,8.40
2018-10-19T01:47:57.763Z,8.40
2018-10-19T01:50:25.911Z,8.40
2018-10-19T01:52:54.131Z,8.30
2018-10-19T01:55:22.264Z,8.30
2018-10-19T01:57:50.467Z,8.40
2018-10-19T02:00:18.611Z,8.30
2018-10-19T02:02:46.768Z,8.30
2018-10-19T02:05:14.990Z,8.40
2018-10-19T02:07:43.075Z,8.30
2018-10-19T02:10:11.218Z,8.40
2018-10-19T02:12:39.384Z,8.20
2018-10-19T02:15:08.030Z,8.20
2018-10-19T02:17:36.163Z,8.20
2018-10-19T02:20:04.319Z,8.10
2018-10-19T02:22:32.487Z,8.10
2018-10-19T02:25:00.720Z,8.00
2018-10-19T02:27:28.871Z,8.00
2018-10-19T02:29:57.028Z,8.00
2018-10-19T02:32:25.199Z,8.00
2018-10-19T02:34:53.372Z,8.00
2018-10-19T02:37:21.549Z,7.90
2018-10-19T02:39:49.808Z,8.00
2018-10-19T02:42:18.023Z,8.00
2018-10-19T02:44:46.199Z,8.10
2018-10-19T02:47:14.447Z,8.10
2018-10-19T02:49:42.599Z,8.10
2018-10-19T02:52:10.782Z,8.10
2018-10-19T02:54:38.946Z,8.10
2018-10-19T02:57:07.264Z,8.00
2018-10-19T02:59:35.394Z,8.00
2018-10-19T03:02:03.563Z,7.80
2018-10-19T03:04:31.740Z,7.90
2018-10-19T03:06:59.954Z,7.80
2018-10-19T03:09:28.100Z,7.90
2018-10-19T03:11:56.259Z,7.90
2018-10-19T03:14:24.426Z,7.80
2018-10-19T03:16:52.629Z,7.90
2018-10-19T03:19:20.784Z,7.90
2018-10-19T03:21:48.991Z,8.00
2018-10-19T03:24:17.127Z,8.00
2018-10-19T03:26:45.323Z,8.00
2018-10-19T03:29:13.523Z,8.00
2018-10-19T03:31:41.650Z,8.00
2018-10-19T03:34:10.908Z,8.00
2018-10-19T03:36:39.072Z,8.00
2018-10-19T03:39:08.149Z,8.10
2018-10-19T03:41:36.180Z,8.30
2018-10-19T03:44:04.443Z,8.30
2018-10-19T03:46:32.643Z,8.30
2018-10-19T03:49:00.903Z,8.30
2018-10-19T03:51:29.032Z,8.30
2018-10-19T03:53:57.224Z,8.40
2018-10-19T03:56:25.412Z,8.40
2018-10-19T03:58:53.657Z,8.30
2018-10-19T04:01:21.846Z,8.40
2018-10-19T04:03:50.054Z,8.30
2018-10-19T04:06:18.259Z,8.30
2018-10-19T04:08:46.470Z,8.30
2018-10-19T04:11:14.767Z,8.30
2018-10-19T04:13:42.867Z,8.30
2018-10-19T04:16:11.065Z,8.30
2018-10-19T04:18:39.258Z,8.40
2018-10-19T04:21:07.608Z,8.30
2018-10-19T04:23:35.732Z,8.30
2018-10-19T04:26:03.932Z,8.30
2018-10-19T04:28:32.157Z,8.40
2018-10-19T04:31:00.330Z,8.50
2018-10-19T04:33:28.544Z,8.40
2018-10-19T04:35:56.735Z,8.40
2018-10-19T04:38:25.047Z,8.40
2018-10-19T04:40:53.243Z,8.50
2018-10-19T04:43:21.466Z,8.60
2018-10-19T04:45:49.743Z,8.60
2018-10-19T04:48:17.907Z,8.50
2018-10-19T04:50:46.107Z,8.60
2018-10-19T04:53:14.330Z,8.50
2018-10-19T04:55:42.454Z,8.50
2018-10-19T04:58:10.619Z,8.50
2018-10-19T05:00:38.821Z,8.50
2018-10-19T05:03:07.017Z,8.60
2018-10-19T05:05:35.155Z,8.50
2018-10-19T05:08:03.385Z,8.60
2018-10-19T05:10:31.579Z,8.50
2018-10-19T05:12:59.817Z,8.50
2018-10-19T05:15:27.888Z,8.50
2018-10-19T05:17:56.070Z,8.60
2018-10-19T05:20:24.238Z,8.70
2018-10-19T05:22:52.404Z,8.70
2018-10-19T05:25:20.582Z,8.70
2018-10-19T05:27:48.743Z,8.70
2018-10-19T05:30:16.947Z,8.80
2018-10-19T05:32:45.134Z,8.80
2018-10-19T05:35:13.423Z,8.80
2018-10-19T05:37:41.781Z,8.80
2018-10-19T05:40:10.775Z,8.70
2018-10-19T05:42:39.407Z,8.80
2018-10-19T05:45:08.656Z,8.80
2018-10-19T05:47:36.842Z,8.90
2018-10-19T05:50:05.863Z,8.90
2018-10-19T05:52:34.048Z,8.90
2018-10-19T05:55:02.235Z,8.90
2018-10-19T05:57:30.423Z,8.90
2018-10-19T05:59:58.610Z,9.00
2018-10-19T06:02:26.924Z,9.00
2018-10-19T06:04:55.037Z,9.10
2018-10-19T06:07:23.210Z,9.10
2018-10-19T06:09:51.419Z,9.20
2018-10-19T06:12:19.619Z,9.20
2018-10-19T06:14:47.814Z,9.10
2018-10-19T06:17:16.016Z,9.10
2018-10-19T06:19:44.211Z,9.10
2018-10-19T06:22:12.506Z,9.10
2018-10-19T06:24:40.719Z,9.10
2018-10-19T06:27:08.906Z,9.10
2018-10-19T06:29:37.110Z,9.10
2018-10-19T06:32:05.924Z,9.20
2018-10-19T06:34:34.107Z,9.20
2018-10-19T06:37:02.297Z,9.30
2018-10-19T06:39:30.483Z,9.40
2018-10-19T06:41:58.695Z,9.30
2018-10-19T06:44:26.858Z,9.40
2018-10-19T06:46:55.105Z,9.40
2018-10-19T06:49:23.231Z,9.40
2018-10-19T06:51:51.396Z,9.40
2018-10-19T06:54:19.559Z,9.30
2018-10-19T06:56:47.724Z,9.30
2018-10-19T06:59:15.913Z,9.30
2018-10-19T07:01:44.044Z,9.30
2018-10-19T07:04:12.224Z,9.30
2018-10-19T07:06:40.412Z,9.40
2018-10-19T07:09:08.666Z,9.50
2018-10-19T07:11:36.832Z,9.50
2018-10-19T07:14:05.186Z,9.50
2018-10-19T07:16:33.320Z,9.50
2018-10-19T07:19:04.664Z,9.50
2018-10-19T07:21:32.759Z,9.60
2018-10-19T07:24:00.934Z,9.70
2018-10-19T07:26:29.108Z,9.70
2018-10-19T07:28:57.284Z,9.80
2018-10-19T07:31:25.484Z,9.80
2018-10-19T07:33:54.338Z,9.80
2018-10-19T07:36:22.623Z,9.70
2018-10-19T07:38:50.742Z,9.70
2018-10-19T07:41:18.975Z,9.80
2018-10-19T07:43:47.139Z,9.90
2018-10-19T07:46:15.351Z,10.00
2018-10-19T07:48:43.512Z,9.90
2018-10-19T07:51:11.678Z,9.90
2018-10-19T07:53:39.934Z,10.00
2018-10-19T07:56:08.212Z,10.00
2018-10-19T07:58:36.323Z,10.00
2018-10-19T08:01:04.578Z,10.00
2018-10-19T08:03:32.734Z,10.10
2018-10-19T08:06:00.971Z,10.10
2018-10-19T08:08:29.145Z,10.10
2018-10-19T08:10:57.352Z,10.20
2018-10-19T08:13:25.474Z,10.20
2018-10-19T08:15:53.655Z,10.20
2018-10-19T08:18:21.830Z,10.20
2018-10-19T08:20:50.015Z,10.20
2018-10-19T08:23:18.176Z,10.20
2018-10-19T08:25:46.365Z,10.20
2018-10-19T08:28:14.523Z,10.30
2018-10-19T08:30:42.707Z,10.40
2018-10-19T08:33:10.895Z,10.40
2018-10-19T08:35:39.106Z,10.50
2018-10-19T08:38:07.266Z,10.50
2018-10-19T08:40:35.462Z,10.60
2018-10-19T08:43:03.672Z,10.70
2018-10-19T08:45:31.867Z,10.70
2018-10-19T08:48:00.064Z,10.70
2018-10-19T08:50:28.255Z,10.80
2018-10-19T08:52:56.585Z,10.90
2018-10-19T08:55:24.748Z,10.90
2018-10-19T08:57:53.054Z,11.00
2018-10-19T09:00:21.140Z,11.10
2018-10-19T09:02:49.331Z,11.10
2018-10-19T09:05:17.537Z,11.10
2018-10-19T09:07:45.788Z,11.10
2018-10-19T09:10:14.173Z,11.00
2018-10-19T09:12:43.455Z,11.00
2018-10-19T09:15:11.591Z,11.10
2018-10-19T09:17:39.706Z,11.20
2018-10-19T09:20:07.915Z,11.30
2018-10-19T09:22:36.089Z,11.40
2018-10-19T09:25:04.343Z,11.40
2018-10-19T09:27:32.517Z,11.40
2018-10-19T09:30:00.768Z,11.40
2018-10-19T09:32:28.941Z,11.60
2018-10-19T09:34:57.119Z,11.70
2018-10-19T09:37:25.283Z,11.80
2018-10-19T09:39:53.448Z,11.80
2018-10-19T09:42:21.611Z,11.90
2018-10-19T09:44:49.770Z,11.80
2018-10-19T09:47:18.011Z,11.90
2018-10-19T09:49:46.098Z,11.90
2018-10-19T09:52:14.278Z,12.00
2018-10-19T09:54:42.447Z,12.20
2018-10-19T09:57:10.690Z,12.20
2018-10-19T09:59:38.768Z,12.20
2018-10-19T10:02:07.070Z,12.30
2018-10-19T10:04:35.216Z,12.40
2018-10-19T10:07:03.423Z,12.40
2018-10-19T10:09:31.562Z,12.40
2018-10-19T10:11:59.802Z,12.50
2018-10-19T10:14:27.983Z,12.70
2018-10-19T10:16:56.206Z,12.80
2018-10-19T10:19:24.295Z,12.90
2018-10-19T10:21:52.474Z,13.20
2018-10-19T10:24:20.682Z,13.30
2018-10-19T10:26:48.859Z,13.30
2018-10-19T10:29:17.057Z,13.50
2018-10-19T10:31:45.320Z,13.50
2018-10-19T10:34:13.544Z,13.70
2018-10-19T10:36:41.656Z,13.80
2018-10-19T10:39:11.557Z,13.90
2018-10-19T10:41:39.647Z,13.80
2018-10-19T10:44:07.959Z,13.90
2018-10-19T10:46:36.143Z,13.80
2018-10-19T10:49:04.374Z,13.80
2018-10-19T10:51:32.511Z,13.80
2018-10-19T10:54:00.699Z,13.90
2018-10-19T10:56:28.894Z,13.90
2018-10-19T10:58:57.074Z,14.00
2018-10-19T11:01:25.279Z,14.00
2018-10-19T11:03:53.485Z,14.10
2018-10-19T11:06:21.695Z,14.20
2018-10-19T11:08:49.889Z,14.20
2018-10-19T11:11:18.084Z,14.30
2018-10-19T11:13:46.272Z,14.40
2018-10-19T11:16:14.577Z,14.30
2018-10-19T11:18:42.668Z,14.50
2018-10-19T11:21:10.895Z,14.70
2018-10-19T11:23:39.128Z,14.80
2018-10-19T11:26:08.131Z,14.90
2018-10-19T11:28:36.313Z,15.10
2018-10-19T11:31:04.958Z,15.10
2018-10-19T11:33:33.115Z,15.10
2018-10-19T11:36:01.340Z,15.20
2018-10-19T11:38:29.515Z,15.40
2018-10-19T11:40:57.703Z,15.40
2018-10-19T11:43:25.891Z,15.60
2018-10-19T11:45:54.095Z,15.70
2018-10-19T11:48:22.288Z,15.70
2018-10-19T11:50:50.463Z,15.80
2018-10-19T11:53:18.657Z,15.90
2018-10-19T11:55:46.840Z,15.90
2018-10-19T11:58:15.071Z,16.00
2018-10-19T12:00:43.235Z,16.20
2018-10-19T12:03:11.440Z,16.30
2018-10-19T12:05:39.639Z,16.30
2018-10-19T12:08:07.828Z,16.30
2018-10-19T12:10:36.090Z,16.30
2018-10-19T12:13:04.264Z,16.40
2018-10-19T12:15:32.391Z,16.60
2018-10-19T12:18:00.576Z,16.70
2018-10-19T12:20:28.774Z,16.90
2018-10-19T12:22:57.035Z,16.90
2018-10-19T12:25:25.228Z,16.90
2018-10-19T12:27:53.411Z,16.90
2018-10-19T12:30:21.594Z,16.90
2018-10-19T12:32:49.774Z,17.00
2018-10-19T12:35:17.989Z,17.10
2018-10-19T12:37:46.180Z,17.20
2018-10-19T12:40:14.371Z,17.30
2018-10-19T12:42:42.633Z,17.40
2018-10-19T12:46:26.234Z,17.50
2018-10-19T12:48:55.028Z,17.60
2018-10-19T12:51:23.155Z,17.60
2018-10-19T12:53:51.350Z,17.80
2018-10-19T12:56:20.356Z,17.80
2018-10-19T12:58:49.676Z,17.90
2018-10-19T13:01:18.134Z,18.00
2018-10-19T13:03:46.361Z,18.00
2018-10-19T13:06:14.566Z,18.10
2018-10-19T13:08:42.758Z,18.20
2018-10-19T13:11:10.964Z,18.30
2018-10-19T13:13:39.259Z,18.30
2018-10-19T13:16:07.497Z,18.40
2018-10-19T13:18:35.653Z,18.50
2018-10-19T13:21:03.850Z,18.50
2018-10-19T13:23:32.726Z,18.60
2018-10-19T13:26:00.991Z,18.70
2018-10-19T13:28:29.263Z,18.70
2018-10-19T13:32:26.710Z,18.90
2018-10-19T13:34:54.907Z,18.90
2018-10-19T13:37:23.093Z,18.80
2018-10-19T13:39:51.274Z,18.90
2018-10-19T13:42:19.471Z,18.90
2018-10-19T13:44:47.650Z,18.80
2018-10-19T13:47:15.808Z,18.80
2018-10-19T13:49:43.976Z,18.80
2018-10-19T13:52:12.153Z,18.80
2018-10-19T13:54:40.314Z,18.70
2018-10-19T13:57:08.534Z,18.60
2018-10-19T13:59:36.635Z,18.60
2018-10-19T14:02:05.191Z,18.70
2018-10-19T14:04:33.367Z,18.70
2018-10-19T14:07:01.591Z,18.70
2018-10-19T14:09:29.757Z,18.80
2018-10-19T14:11:57.934Z,18.80
2018-10-19T14:14:26.099Z,18.80
2018-10-19T14:16:54.295Z,18.70
2018-10-19T14:19:22.411Z,18.70
2018-10-19T14:21:50.567Z,18.50
2018-10-19T14:24:18.829Z,18.40
2018-10-19T14:26:47.056Z,18.40
2018-10-19T14:29:15.200Z,18.30
2018-10-19T14:31:43.317Z,18.40
2018-10-19T14:34:11.475Z,18.30
2018-10-19T14:36:39.636Z,18.10
2018-10-19T14:39:07.842Z,18.20
2018-10-19T14:41:35.961Z,18.20
2018-10-19T14:44:04.151Z,18.20
2018-10-19T14:46:32.352Z,18.20
2018-10-19T14:49:00.615Z,18.10
2018-10-19T14:51:28.743Z,18.10
2018-10-19T14:53:56.934Z,17.90
2018-10-19T14:56:25.125Z,17.90
2018-10-19T14:58:53.393Z,18.00
2018-10-19T15:01:21.664Z,18.00
2018-10-19T15:03:49.855Z,17.90
2018-10-19T15:06:18.047Z,17.80
2018-10-19T15:08:46.247Z,17.80
2018-10-19T15:11:14.796Z,17.80
2018-10-19T15:13:42.632Z,17.60
2018-10-19T15:16:10.835Z,17.60
2018-10-19T15:18:39.153Z,17.60
2018-10-19T15:21:07.327Z,17.60
2018-10-19T15:23:35.479Z,17.60
2018-10-19T15:26:03.668Z,17.60
2018-10-19T15:28:31.859Z,17.50
2018-10-19T15:31:00.048Z,17.40
2018-10-19T15:33:28.239Z,17.40
2018-10-19T15:35:56.547Z,17.30
2018-10-19T15:38:24.682Z,17.30
2018-10-19T15:43:20.823Z,17.20
2018-10-19T15:45:48.996Z,17.20
2018-10-19T15:48:17.178Z,17.20
2018-10-19T15:50:45.320Z,17.20
2018-10-19T15:53:13.578Z,17.10
2018-10-19T15:55:41.886Z,17.10
2018-10-19T15:58:10.061Z,17.00
2018-10-19T16:00:38.270Z,17.00
2018-10-19T16:03:06.525Z,16.80
2018-10-19T16:05:34.667Z,16.80
2018-10-19T16:08:02.841Z,16.80
2018-10-19T16:10:30.994Z,16.80
2018-10-19T16:12:59.154Z,16.70
2018-10-19T16:15:27.352Z,16.70
2018-10-19T16:17:55.518Z,16.70
2018-10-19T16:20:23.671Z,16.50
2018-10-19T16:22:51.882Z,16.50
2018-10-19T16:25:20.050Z,16.50
2018-10-19T16:27:48.233Z,16.40
2018-10-19T16:30:16.628Z,16.90
2018-10-19T16:32:44.790Z,16.40
2018-10-19T16:35:13.074Z,14.00
2018-10-19T16:37:41.332Z,16.80
2018-10-19T16:40:09.492Z,16.30
2018-10-19T16:42:37.870Z,16.30
2018-10-19T16:45:06.750Z,16.20
2018-10-19T16:47:34.964Z,16.20
2018-10-19T16:50:03.148Z,16.20
2018-10-19T16:52:31.452Z,16.10
2018-10-19T16:54:59.670Z,16.10
2018-10-19T16:57:27.851Z,16.00
2018-10-19T16:59:56.133Z,16.00
2018-10-19T17:02:24.319Z,15.90
2018-10-19T17:04:52.557Z,15.80
2018-10-19T17:07:20.736Z,15.70
2018-10-19T17:09:48.891Z,15.70
2018-10-19T17:12:17.050Z,15.60
2018-10-19T17:14:45.220Z,15.60
2018-10-19T17:17:13.383Z,15.50
2018-10-19T17:19:41.559Z,15.40
2018-10-19T17:22:09.726Z,15.40
2018-10-19T17:24:37.907Z,15.40
2018-10-19T17:27:06.305Z,15.40
2018-10-19T17:29:34.428Z,15.30
2018-10-19T17:32:02.585Z,15.20
2018-10-19T17:34:30.856Z,15.40
2018-10-19T17:36:59.058Z,15.10
2018-10-19T17:39:27.186Z,15.40
2018-10-19T17:41:55.405Z,15.00
2018-10-19T17:44:23.581Z,15.00
2018-10-19T17:46:51.754Z,14.90
2018-10-19T17:49:19.939Z,14.90
2018-10-19T17:51:48.104Z,14.80
2018-10-19T17:54:16.295Z,14.70
2018-10-19T17:56:44.451Z,14.80
2018-10-19T17:59:12.629Z,14.80
2018-10-19T18:01:40.883Z,14.70
2018-10-19T18:04:09.037Z,14.60
2018-10-19T18:06:37.218Z,14.40
2018-10-19T18:09:08.457Z,14.30
2018-10-19T18:11:36.628Z,14.20
2018-10-19T18:14:04.984Z,14.00
2018-10-19T18:16:33.160Z,13.90
2018-10-19T18:19:01.355Z,13.80
2018-10-19T18:21:29.598Z,13.80
2018-10-19T18:23:57.735Z,13.80
2018-10-19T18:26:26.078Z,13.70
2018-10-19T18:28:54.259Z,13.60
2018-10-19T18:31:22.399Z,13.50
2018-10-19T18:33:50.580Z,13.40
2018-10-19T18:36:18.816Z,13.10
2018-10-19T18:38:47.061Z,13.10
2018-10-19T18:41:15.446Z,13.30
2018-10-19T18:43:43.512Z,12.90
2018-10-19T18:46:11.810Z,12.90
2018-10-19T18:48:40.009Z,12.90
2018-10-19T18:53:42.817Z,12.70
2018-10-19T18:56:11.078Z,12.70
2018-10-19T18:58:39.229Z,12.80
2018-10-19T19:01:07.432Z,12.60
2018-10-19T19:03:35.680Z,12.60
2018-10-19T19:06:03.874Z,12.60
2018-10-19T19:08:32.067Z,12.60
2018-10-19T19:11:00.283Z,12.60
2018-10-19T19:13:29.140Z,12.50
2018-10-19T19:15:57.687Z,12.40
2018-10-19T19:18:26.102Z,12.30
2018-10-19T19:20:54.363Z,12.30
2018-10-19T19:23:22.567Z,12.20
2018-10-19T19:25:56.279Z,12.10
2018-10-19T19:28:24.479Z,12.10
2018-10-19T19:30:52.693Z,12.00
2018-10-19T19:33:26.094Z,12.00
2018-10-19T19:35:54.295Z,11.90
2018-10-19T19:38:22.481Z,12.10
2018-10-19T19:40:56.150Z,11.80
2018-10-19T19:43:24.287Z,11.60
2018-10-19T19:45:52.507Z,11.80
2018-10-19T19:50:54.083Z,11.80
2018-10-19T19:53:22.307Z,11.80
2018-10-19T19:55:50.579Z,11.60
2018-10-19T19:58:18.758Z,11.40
2018-10-19T20:00:46.909Z,11.30
2018-10-19T20:03:15.088Z,11.20
2018-10-19T20:05:43.399Z,11.20
2018-10-19T20:08:11.656Z,11.20
2018-10-19T20:10:39.731Z,11.10
2018-10-19T20:13:07.903Z,11.00
2018-10-19T20:15:36.108Z,11.00
2018-10-19T20:18:04.593Z,10.90
2018-10-19T20:20:32.739Z,10.90
2018-10-19T20:23:01.001Z,10.90
2018-10-19T20:25:29.135Z,10.90
2018-10-19T20:27:57.305Z,10.80
2018-10-19T20:30:25.484Z,10.70
2018-10-19T20:32:53.656Z,10.70
2018-10-19T20:35:21.843Z,10.70
2018-10-19T20:37:50.055Z,10.40
2018-10-19T20:40:18.224Z,10.40
2018-10-19T20:42:46.376Z,10.40
2018-10-19T20:45:14.573Z,10.20
2018-10-19T20:52:38.626Z,10.10
2018-10-19T20:55:06.870Z,10.00
2018-10-19T20:57:35.047Z,10.00
2018-10-19T21:00:03.211Z,10.00
2018-10-19T21:02:31.438Z,10.10
2018-10-19T21:04:59.590Z,10.00
2018-10-19T21:07:27.853Z,10.00
2018-10-19T21:09:55.947Z,10.00
2018-10-19T21:12:24.148Z,10.00
2018-10-19T21:14:52.332Z,10.00
2018-10-19T21:17:20.603Z,10.00
2018-10-19T21:19:48.776Z,10.10
2018-10-19T21:22:16.973Z,10.10
2018-10-19T21:24:45.206Z,10.00
2018-10-19T21:27:13.499Z,10.00
2018-10-19T21:29:41.692Z,9.90
2018-10-19T21:32:09.920Z,9.80
2018-10-19T21:34:38.044Z,9.70
2018-10-19T21:37:06.239Z,9.60
2018-10-19T21:39:34.459Z,9.60
2018-10-19T21:42:02.736Z,9.70
2018-10-19T21:44:30.944Z,9.60
2018-10-19T21:46:59.240Z,9.60
2018-10-19T21:49:27.422Z,9.50
2018-10-19T21:51:55.640Z,9.50
2018-10-19T21:54:23.858Z,9.50
2018-10-19T21:56:52.048Z,9.50
2018-10-19T21:59:20.299Z,9.50
2018-10-19T22:01:48.486Z,9.60
2018-10-19T22:04:16.683Z,9.70
2018-10-19T22:06:44.897Z,9.70
2018-10-19T22:09:13.542Z,9.70
2018-10-19T22:11:42.244Z,9.70
2018-10-19T22:14:10.794Z,9.80
2018-10-19T22:16:39.802Z,9.80
2018-10-19T22:19:08.991Z,9.80
2018-10-19T22:21:37.163Z,9.80
2018-10-19T22:24:05.949Z,9.80
2018-10-19T22:26:34.128Z,9.80
2018-10-19T22:29:02.420Z,9.80
2018-10-19T22:31:30.519Z,9.80
2018-10-19T22:33:58.709Z,9.90
2018-10-19T22:36:27.004Z,9.90
2018-10-19T22:38:55.255Z,9.90
2018-10-19T22:41:23.553Z,10.30
2018-10-19T22:43:51.940Z,10.10
2018-10-19T22:46:20.373Z,10.00
2018-10-19T22:48:48.710Z,9.80
2018-10-19T22:51:16.908Z,9.80
2018-10-19T22:56:13.074Z,9.80
2018-10-19T22:58:41.466Z,9.90
2018-10-19T23:01:09.727Z,10.00
2018-10-19T23:03:37.909Z,10.00
2018-10-19T23:06:06.090Z,10.10
2018-10-19T23:08:34.278Z,10.10
2018-10-19T23:11:02.490Z,10.20
2018-10-19T23:13:30.662Z,10.20
2018-10-19T23:15:58.879Z,10.20
2018-10-19T23:18:27.054Z,10.20
2018-10-19T23:20:55.364Z,10.10
2018-10-19T23:23:23.598Z,10.20
2018-10-19T23:25:51.876Z,10.20
2018-10-19T23:28:20.064Z,10.20
2018-10-19T23:30:48.292Z,10.20
2018-10-19T23:33:16.502Z,10.20
2018-10-19T23:35:44.698Z,10.30
2018-10-19T23:38:12.899Z,10.20
2018-10-19T23:40:41.157Z,10.20
2018-10-19T23:43:09.437Z,10.30
2018-10-19T23:45:37.559Z,10.30
2018-10-19T23:48:05.848Z,10.30
2018-10-19T23:50:34.059Z,10.50
2018-10-19T23:53:02.338Z,10.30
2018-10-19T23:55:30.604Z,10.40
2018-10-19T23:57:58.787Z,10.30
